sensor_id;sensor_type;location;lat;lon;timestamp;pressure;altitude;pressure_sealevel;temperature;humidity
80620;BME280;69979;53.682;-2.690;2023-11-21T00:00:36;101468.93;;;9.53;60.28
80620;BME280;69979;53.682;-2.690;2023-11-21T00:03:02;101476.84;;;9.40;60.11
80620;BME280;69979;53.682;-2.690;2023-11-21T00:05:28;101476.40;;;9.40;60.17
80620;BME280;69979;53.682;-2.690;2023-11-21T00:07:53;101488.68;;;8.90;61.02
80620;BME280;69979;53.682;-2.690;2023-11-21T00:10:19;101494.61;;;9.46;60.68
80620;BME280;69979;53.682;-2.690;2023-11-21T00:12:45;101503.51;;;9.55;60.47
80620;BME280;69979;53.682;-2.690;2023-11-21T00:15:10;101511.29;;;9.98;59.31
80620;BME280;69979;53.682;-2.690;2023-11-21T00:17:36;101510.64;;;9.36;60.45
80620;BME280;69979;53.682;-2.690;2023-11-21T00:20:01;101519.08;;;9.63;60.05
80620;BME280;69979;53.682;-2.690;2023-11-21T00:22:27;101523.55;;;9.97;59.58
80620;BME280;69979;53.682;-2.690;2023-11-21T00:24:52;101525.22;;;10.05;59.41
80620;BME280;69979;53.682;-2.690;2023-11-21T00:27:18;101528.82;;;10.25;57.90
80620;BME280;69979;53.682;-2.690;2023-11-21T00:29:44;101530.69;;;10.72;57.42
80620;BME280;69979;53.682;-2.690;2023-11-21T00:32:09;101535.74;;;10.64;56.93
80620;BME280;69979;53.682;-2.690;2023-11-21T00:34:35;101547.47;;;10.23;58.30
80620;BME280;69979;53.682;-2.690;2023-11-21T00:37:00;101552.49;;;9.95;58.49
80620;BME280;69979;53.682;-2.690;2023-11-21T00:39:26;101553.06;;;9.10;60.38
80620;BME280;69979;53.682;-2.690;2023-11-21T00:41:52;101560.73;;;9.92;58.91
80620;BME280;69979;53.682;-2.690;2023-11-21T00:44:17;101564.96;;;9.84;58.87
80620;BME280;69979;53.682;-2.690;2023-11-21T00:46:43;101565.31;;;9.97;58.77
80620;BME280;69979;53.682;-2.690;2023-11-21T00:49:08;101571.69;;;10.52;57.08
80620;BME280;69979;53.682;-2.690;2023-11-21T00:51:34;101574.54;;;11.22;56.35
80620;BME280;69979;53.682;-2.690;2023-11-21T00:54:00;101583.23;;;10.56;56.50
80620;BME280;69979;53.682;-2.690;2023-11-21T00:56:25;101587.58;;;11.10;55.94
80620;BME280;69979;53.682;-2.690;2023-11-21T00:58:51;101592.22;;;10.33;56.72
80620;BME280;69979;53.682;-2.690;2023-11-21T01:01:16;101593.27;;;9.88;57.56
80620;BME280;69979;53.682;-2.690;2023-11-21T01:03:42;101591.37;;;9.67;58.29
80620;BME280;69979;53.682;-2.690;2023-11-21T01:06:08;101589.84;;;9.95;57.79
80620;BME280;69979;53.682;-2.690;2023-11-21T01:08:33;101588.43;;;9.44;58.39
80620;BME280;69979;53.682;-2.690;2023-11-21T01:10:59;101596.91;;;10.08;57.64
80620;BME280;69979;53.682;-2.690;2023-11-21T01:13:24;101603.17;;;9.90;56.96
80620;BME280;69979;53.682;-2.690;2023-11-21T01:15:50;101604.07;;;10.24;56.16
80620;BME280;69979;53.682;-2.690;2023-11-21T01:18:16;101598.48;;;10.45;55.54
80620;BME280;69979;53.682;-2.690;2023-11-21T01:20:41;101596.22;;;10.54;55.29
80620;BME280;69979;53.682;-2.690;2023-11-21T01:23:07;101594.08;;;10.21;56.43
80620;BME280;69979;53.682;-2.690;2023-11-21T01:25:32;101597.94;;;9.93;56.26
80620;BME280;69979;53.682;-2.690;2023-11-21T01:27:58;101596.18;;;9.57;56.28
80620;BME280;69979;53.682;-2.690;2023-11-21T01:30:23;101599.67;;;10.23;55.70
80620;BME280;69979;53.682;-2.690;2023-11-21T01:32:49;101596.10;;;9.66;56.41
80620;BME280;69979;53.682;-2.690;2023-11-21T01:35:15;101597.62;;;10.47;55.56
80620;BME280;69979;53.682;-2.690;2023-11-21T01:37:40;101602.12;;;9.29;57.33
80620;BME280;69979;53.682;-2.690;2023-11-21T01:40:07;101606.84;;;9.83;56.41
80620;BME280;69979;53.682;-2.690;2023-11-21T01:42:31;101606.29;;;9.67;56.65
80620;BME280;69979;53.682;-2.690;2023-11-21T01:44:57;101609.31;;;9.96;56.38
80620;BME280;69979;53.682;-2.690;2023-11-21T01:47:23;101611.19;;;10.06;55.30
80620;BME280;69979;53.682;-2.690;2023-11-21T01:49:48;101610.54;;;10.85;53.85
80620;BME280;69979;53.682;-2.690;2023-11-21T01:52:14;101612.75;;;10.59;53.92
80620;BME280;69979;53.682;-2.690;2023-11-21T01:54:41;101608.43;;;9.69;55.56
80620;BME280;69979;53.682;-2.690;2023-11-21T01:57:05;101610.99;;;9.76;55.47
80620;BME280;69979;53.682;-2.690;2023-11-21T01:59:35;101614.26;;;9.60;55.81
80620;BME280;69979;53.682;-2.690;2023-11-21T02:01:56;101620.03;;;9.89;55.84
80620;BME280;69979;53.682;-2.690;2023-11-21T02:04:22;101624.69;;;10.22;55.34
80620;BME280;69979;53.682;-2.690;2023-11-21T02:06:47;101632.04;;;9.89;53.82
80620;BME280;69979;53.682;-2.690;2023-11-21T02:09:13;101633.41;;;9.88;54.45
80620;BME280;69979;53.682;-2.690;2023-11-21T02:11:39;101631.91;;;9.92;54.59
80620;BME280;69979;53.682;-2.690;2023-11-21T02:14:04;101637.36;;;10.02;54.59
80620;BME280;69979;53.682;-2.690;2023-11-21T02:16:30;101644.57;;;10.29;54.19
80620;BME280;69979;53.682;-2.690;2023-11-21T02:18:56;101646.28;;;10.36;53.79
80620;BME280;69979;53.682;-2.690;2023-11-21T02:21:21;101648.24;;;10.06;54.67
80620;BME280;69979;53.682;-2.690;2023-11-21T02:23:47;101648.55;;;9.84;54.28
80620;BME280;69979;53.682;-2.690;2023-11-21T02:26:13;101656.26;;;10.86;52.94
80620;BME280;69979;53.682;-2.690;2023-11-21T02:28:38;101658.59;;;10.27;53.26
80620;BME280;69979;53.682;-2.690;2023-11-21T02:31:03;101658.78;;;9.55;55.31
80620;BME280;69979;53.682;-2.690;2023-11-21T02:33:29;101660.28;;;9.06;56.51
80620;BME280;69979;53.682;-2.690;2023-11-21T02:35:54;101662.98;;;8.62;57.66
80620;BME280;69979;53.682;-2.690;2023-11-21T02:38:20;101666.99;;;9.18;57.24
80620;BME280;69979;53.682;-2.690;2023-11-21T02:40:46;101670.93;;;9.23;56.50
80620;BME280;69979;53.682;-2.690;2023-11-21T02:43:12;101667.39;;;9.41;56.77
80620;BME280;69979;53.682;-2.690;2023-11-21T02:45:37;101676.20;;;9.01;56.86
80620;BME280;69979;53.682;-2.690;2023-11-21T02:48:03;101684.37;;;8.97;57.85
80620;BME280;69979;53.682;-2.690;2023-11-21T02:50:28;101688.64;;;8.74;58.23
80620;BME280;69979;53.682;-2.690;2023-11-21T02:52:54;101695.06;;;8.74;58.19
80620;BME280;69979;53.682;-2.690;2023-11-21T02:55:20;101694.99;;;8.47;58.58
80620;BME280;69979;53.682;-2.690;2023-11-21T02:57:45;101700.97;;;8.80;58.34
80620;BME280;69979;53.682;-2.690;2023-11-21T03:00:11;101708.18;;;8.46;58.80
80620;BME280;69979;53.682;-2.690;2023-11-21T03:02:36;101720.41;;;8.34;59.02
80620;BME280;69979;53.682;-2.690;2023-11-21T03:05:02;101728.03;;;8.77;58.06
80620;BME280;69979;53.682;-2.690;2023-11-21T03:07:28;101730.97;;;8.70;58.16
80620;BME280;69979;53.682;-2.690;2023-11-21T03:09:53;101735.71;;;8.73;58.00
80620;BME280;69979;53.682;-2.690;2023-11-21T03:12:19;101735.41;;;8.03;59.99
80620;BME280;69979;53.682;-2.690;2023-11-21T03:14:45;101737.59;;;7.99;60.10
80620;BME280;69979;53.682;-2.690;2023-11-21T03:17:10;101743.69;;;7.09;61.76
80620;BME280;69979;53.682;-2.690;2023-11-21T03:19:36;101749.23;;;7.90;60.90
80620;BME280;69979;53.682;-2.690;2023-11-21T03:22:01;101756.18;;;7.45;61.88
80620;BME280;69979;53.682;-2.690;2023-11-21T03:24:27;101757.75;;;8.10;59.97
80620;BME280;69979;53.682;-2.690;2023-11-21T03:26:53;101764.37;;;8.72;58.91
80620;BME280;69979;53.682;-2.690;2023-11-21T03:29:18;101772.35;;;6.67;62.15
80620;BME280;69979;53.682;-2.690;2023-11-21T03:31:44;101768.76;;;7.48;61.96
80620;BME280;69979;53.682;-2.690;2023-11-21T03:34:16;101768.15;;;7.87;60.79
80620;BME280;69979;53.682;-2.690;2023-11-21T03:36:35;101767.19;;;7.71;61.24
80620;BME280;69979;53.682;-2.690;2023-11-21T03:39:01;101770.24;;;8.59;59.22
80620;BME280;69979;53.682;-2.690;2023-11-21T03:41:26;101777.53;;;7.56;59.26
80620;BME280;69979;53.682;-2.690;2023-11-21T03:43:52;101777.14;;;8.30;59.28
80620;BME280;69979;53.682;-2.690;2023-11-21T03:46:18;101776.15;;;8.39;59.47
80620;BME280;69979;53.682;-2.690;2023-11-21T03:48:43;101779.46;;;7.68;60.31
80620;BME280;69979;53.682;-2.690;2023-11-21T03:51:09;101785.12;;;7.77;60.22
80620;BME280;69979;53.682;-2.690;2023-11-21T03:53:35;101787.80;;;7.40;60.01
80620;BME280;69979;53.682;-2.690;2023-11-21T03:56:02;101788.69;;;7.47;60.39
80620;BME280;69979;53.682;-2.690;2023-11-21T03:58:26;101791.62;;;7.59;60.28
80620;BME280;69979;53.682;-2.690;2023-11-21T04:00:52;101798.10;;;8.14;59.76
80620;BME280;69979;53.682;-2.690;2023-11-21T04:03:17;101812.75;;;6.87;62.59
80620;BME280;69979;53.682;-2.690;2023-11-21T04:05:43;101821.73;;;7.44;62.42
80620;BME280;69979;53.682;-2.690;2023-11-21T04:08:08;101824.17;;;7.18;62.01
80620;BME280;69979;53.682;-2.690;2023-11-21T04:10:34;101825.35;;;6.04;64.36
80620;BME280;69979;53.682;-2.690;2023-11-21T04:13:00;101837.06;;;6.87;63.90
80620;BME280;69979;53.682;-2.690;2023-11-21T04:15:25;101842.42;;;7.14;62.82
80620;BME280;69979;53.682;-2.690;2023-11-21T04:17:51;101841.90;;;7.43;61.98
80620;BME280;69979;53.682;-2.690;2023-11-21T04:20:17;101844.91;;;6.84;63.93
80620;BME280;69979;53.682;-2.690;2023-11-21T04:22:43;101851.76;;;7.17;63.34
80620;BME280;69979;53.682;-2.690;2023-11-21T04:25:08;101847.84;;;6.30;65.55
80620;BME280;69979;53.682;-2.690;2023-11-21T04:27:33;101851.72;;;7.20;62.70
80620;BME280;69979;53.682;-2.690;2023-11-21T04:29:59;101853.58;;;7.29;63.04
80620;BME280;69979;53.682;-2.690;2023-11-21T04:32:25;101855.49;;;6.62;64.54
80620;BME280;69979;53.682;-2.690;2023-11-21T04:34:50;101856.57;;;7.20;63.42
80620;BME280;69979;53.682;-2.690;2023-11-21T04:37:16;101851.83;;;6.72;63.60
80620;BME280;69979;53.682;-2.690;2023-11-21T04:39:42;101854.55;;;7.28;62.31
80620;BME280;69979;53.682;-2.690;2023-11-21T04:42:07;101853.54;;;7.30;63.56
80620;BME280;69979;53.682;-2.690;2023-11-21T04:44:33;101862.44;;;6.98;63.01
80620;BME280;69979;53.682;-2.690;2023-11-21T04:46:59;101858.81;;;6.08;66.01
80620;BME280;69979;53.682;-2.690;2023-11-21T04:49:24;101866.02;;;7.77;62.28
80620;BME280;69979;53.682;-2.690;2023-11-21T04:51:50;101877.56;;;8.04;61.35
80620;BME280;69979;53.682;-2.690;2023-11-21T04:54:16;101873.98;;;8.30;60.19
80620;BME280;69979;53.682;-2.690;2023-11-21T04:56:41;101879.64;;;8.38;59.50
80620;BME280;69979;53.682;-2.690;2023-11-21T04:59:07;101885.34;;;8.36;59.61
80620;BME280;69979;53.682;-2.690;2023-11-21T05:01:32;101889.60;;;8.32;59.50
80620;BME280;69979;53.682;-2.690;2023-11-21T05:03:58;101891.90;;;8.51;59.45
80620;BME280;69979;53.682;-2.690;2023-11-21T05:06:24;101895.37;;;8.86;58.83
80620;BME280;69979;53.682;-2.690;2023-11-21T05:08:49;101905.13;;;7.93;60.92
80620;BME280;69979;53.682;-2.690;2023-11-21T05:11:23;101911.41;;;8.51;59.48
80620;BME280;69979;53.682;-2.690;2023-11-21T05:13:41;101908.00;;;9.09;58.23
80620;BME280;69979;53.682;-2.690;2023-11-21T05:16:07;101910.87;;;9.40;57.49
80620;BME280;69979;53.682;-2.690;2023-11-21T05:18:32;101915.22;;;9.53;56.89
80620;BME280;69979;53.682;-2.690;2023-11-21T05:20:58;101917.10;;;8.91;57.96
80620;BME280;69979;53.682;-2.690;2023-11-21T05:23:23;101922.28;;;8.70;58.21
80620;BME280;69979;53.682;-2.690;2023-11-21T05:25:49;101923.02;;;8.90;57.96
80620;BME280;69979;53.682;-2.690;2023-11-21T05:28:14;101931.82;;;8.63;58.20
80620;BME280;69979;53.682;-2.690;2023-11-21T05:30:40;101940.67;;;8.34;59.90
80620;BME280;69979;53.682;-2.690;2023-11-21T05:33:06;101943.33;;;8.95;58.39
80620;BME280;69979;53.682;-2.690;2023-11-21T05:35:31;101951.34;;;8.13;60.38
80620;BME280;69979;53.682;-2.690;2023-11-21T05:37:57;101952.53;;;8.81;59.07
80620;BME280;69979;53.682;-2.690;2023-11-21T05:40:22;101961.93;;;8.12;60.40
80620;BME280;69979;53.682;-2.690;2023-11-21T05:42:48;101967.82;;;8.06;60.84
80620;BME280;69979;53.682;-2.690;2023-11-21T05:45:14;101972.44;;;8.26;60.50
80620;BME280;69979;53.682;-2.690;2023-11-21T05:47:40;101975.03;;;7.55;61.71
80620;BME280;69979;53.682;-2.690;2023-11-21T05:50:06;101977.62;;;8.60;60.36
80620;BME280;69979;53.682;-2.690;2023-11-21T05:52:30;101983.70;;;8.03;61.32
80620;BME280;69979;53.682;-2.690;2023-11-21T05:54:56;101989.82;;;8.41;60.61
80620;BME280;69979;53.682;-2.690;2023-11-21T05:57:22;101989.02;;;9.26;58.93
80620;BME280;69979;53.682;-2.690;2023-11-21T05:59:47;101993.29;;;8.68;59.73
80620;BME280;69979;53.682;-2.690;2023-11-21T06:02:13;101995.44;;;8.83;58.85
80620;BME280;69979;53.682;-2.690;2023-11-21T06:04:39;101992.15;;;8.74;59.23
80620;BME280;69979;53.682;-2.690;2023-11-21T06:07:04;101994.64;;;8.32;59.70
80620;BME280;69979;53.682;-2.690;2023-11-21T06:09:30;101999.44;;;8.53;59.72
80620;BME280;69979;53.682;-2.690;2023-11-21T06:11:55;102004.18;;;8.54;59.45
80620;BME280;69979;53.682;-2.690;2023-11-21T06:14:21;102005.82;;;8.69;59.66
80620;BME280;69979;53.682;-2.690;2023-11-21T06:16:47;102003.20;;;8.89;58.73
80620;BME280;69979;53.682;-2.690;2023-11-21T06:19:12;102009.07;;;8.48;58.94
80620;BME280;69979;53.682;-2.690;2023-11-21T06:21:38;102009.98;;;9.10;58.70
80620;BME280;69979;53.682;-2.690;2023-11-21T06:24:04;102007.96;;;9.07;58.76
80620;BME280;69979;53.682;-2.690;2023-11-21T06:26:29;102002.04;;;9.29;57.48
80620;BME280;69979;53.682;-2.690;2023-11-21T06:28:55;101999.88;;;9.58;56.83
80620;BME280;69979;53.682;-2.690;2023-11-21T06:31:20;102006.01;;;9.64;56.57
80620;BME280;69979;53.682;-2.690;2023-11-21T06:33:46;102007.67;;;9.63;56.35
80620;BME280;69979;53.682;-2.690;2023-11-21T06:36:12;102016.12;;;9.17;57.14
80620;BME280;69979;53.682;-2.690;2023-11-21T06:38:37;102014.23;;;9.42;56.45
80620;BME280;69979;53.682;-2.690;2023-11-21T06:41:03;102022.16;;;9.52;56.17
80620;BME280;69979;53.682;-2.690;2023-11-21T06:43:29;102026.31;;;9.11;57.05
80620;BME280;69979;53.682;-2.690;2023-11-21T06:45:54;102028.48;;;8.47;58.45
80620;BME280;69979;53.682;-2.690;2023-11-21T06:48:20;102033.09;;;9.11;57.35
80620;BME280;69979;53.682;-2.690;2023-11-21T06:50:45;102040.81;;;9.01;57.66
80620;BME280;69979;53.682;-2.690;2023-11-21T06:53:11;102047.96;;;8.44;59.49
80620;BME280;69979;53.682;-2.690;2023-11-21T06:55:37;102052.92;;;8.49;59.59
80620;BME280;69979;53.682;-2.690;2023-11-21T06:58:02;102055.60;;;7.53;61.08
80620;BME280;69979;53.682;-2.690;2023-11-21T07:00:28;102065.38;;;6.59;64.13
80620;BME280;69979;53.682;-2.690;2023-11-21T07:02:54;102068.26;;;7.05;62.77
80620;BME280;69979;53.682;-2.690;2023-11-21T07:05:21;102070.40;;;6.74;64.38
80620;BME280;69979;53.682;-2.690;2023-11-21T07:07:45;102071.26;;;7.11;64.07
80620;BME280;69979;53.682;-2.690;2023-11-21T07:10:11;102072.44;;;7.70;61.92
80620;BME280;69979;53.682;-2.690;2023-11-21T07:12:36;102077.65;;;8.68;59.14
80620;BME280;69979;53.682;-2.690;2023-11-21T07:15:02;102080.35;;;9.68;57.27
80620;BME280;69979;53.682;-2.690;2023-11-21T07:17:27;102078.72;;;9.21;57.48
80620;BME280;69979;53.682;-2.690;2023-11-21T07:19:53;102080.36;;;8.77;58.60
80620;BME280;69979;53.682;-2.690;2023-11-21T07:22:19;102082.27;;;8.38;59.31
80620;BME280;69979;53.682;-2.690;2023-11-21T07:24:44;102075.53;;;8.09;60.69
80620;BME280;69979;53.682;-2.690;2023-11-21T07:27:10;102073.49;;;7.61;61.28
80620;BME280;69979;53.682;-2.690;2023-11-21T07:29:36;102070.11;;;7.62;61.77
80620;BME280;69979;53.682;-2.690;2023-11-21T07:32:01;102071.54;;;7.54;61.99
80620;BME280;69979;53.682;-2.690;2023-11-21T07:34:27;102079.08;;;7.71;61.55
80620;BME280;69979;53.682;-2.690;2023-11-21T07:36:53;102095.54;;;7.86;61.28
80620;BME280;69979;53.682;-2.690;2023-11-21T07:39:18;102114.89;;;8.34;59.70
80620;BME280;69979;53.682;-2.690;2023-11-21T07:41:44;102130.89;;;7.89;59.99
80620;BME280;69979;53.682;-2.690;2023-11-21T07:44:10;102142.16;;;8.39;59.38
80620;BME280;69979;53.682;-2.690;2023-11-21T07:46:35;102153.67;;;8.91;57.87
80620;BME280;69979;53.682;-2.690;2023-11-21T07:49:01;102164.53;;;9.28;56.83
80620;BME280;69979;53.682;-2.690;2023-11-21T07:51:26;102167.67;;;8.45;58.70
80620;BME280;69979;53.682;-2.690;2023-11-21T07:53:52;102177.32;;;8.59;57.81
80620;BME280;69979;53.682;-2.690;2023-11-21T07:56:18;102180.12;;;9.32;56.55
80620;BME280;69979;53.682;-2.690;2023-11-21T07:58:43;102184.12;;;8.83;56.65
80620;BME280;69979;53.682;-2.690;2023-11-21T08:01:09;102186.66;;;8.88;57.18
80620;BME280;69979;53.682;-2.690;2023-11-21T08:03:34;102187.03;;;8.45;56.86
80620;BME280;69979;53.682;-2.690;2023-11-21T08:06:00;102194.43;;;8.98;56.48
80620;BME280;69979;53.682;-2.690;2023-11-21T08:08:26;102200.30;;;8.70;56.45
80620;BME280;69979;53.682;-2.690;2023-11-21T08:10:52;102219.41;;;8.52;56.60
80620;BME280;69979;53.682;-2.690;2023-11-21T08:13:17;102229.78;;;7.77;57.96
80620;BME280;69979;53.682;-2.690;2023-11-21T08:15:43;102240.72;;;8.15;57.54
80620;BME280;69979;53.682;-2.690;2023-11-21T08:18:08;102246.75;;;7.71;59.27
80620;BME280;69979;53.682;-2.690;2023-11-21T08:20:35;102251.45;;;8.74;56.53
80620;BME280;69979;53.682;-2.690;2023-11-21T08:23:00;102246.84;;;9.19;55.46
80620;BME280;69979;53.682;-2.690;2023-11-21T08:25:26;102252.47;;;9.39;55.40
80620;BME280;69979;53.682;-2.690;2023-11-21T08:27:52;102258.19;;;9.31;54.76
80620;BME280;69979;53.682;-2.690;2023-11-21T08:30:18;102266.41;;;10.09;54.56
80620;BME280;69979;53.682;-2.690;2023-11-21T08:32:43;102272.20;;;10.82;53.25
80620;BME280;69979;53.682;-2.690;2023-11-21T08:35:10;102270.61;;;10.95;52.40
80620;BME280;69979;53.682;-2.690;2023-11-21T08:37:34;102273.66;;;10.47;52.40
80620;BME280;69979;53.682;-2.690;2023-11-21T08:40:00;102283.14;;;10.39;52.41
80620;BME280;69979;53.682;-2.690;2023-11-21T08:42:25;102291.38;;;10.88;52.17
80620;BME280;69979;53.682;-2.690;2023-11-21T08:44:51;102300.89;;;10.97;50.59
80620;BME280;69979;53.682;-2.690;2023-11-21T08:47:17;102308.77;;;11.36;50.86
80620;BME280;69979;53.682;-2.690;2023-11-21T08:49:42;102312.74;;;10.33;51.71
80620;BME280;69979;53.682;-2.690;2023-11-21T08:52:08;102312.57;;;10.18;52.82
80620;BME280;69979;53.682;-2.690;2023-11-21T08:54:33;102314.78;;;10.94;52.53
80620;BME280;69979;53.682;-2.690;2023-11-21T08:56:59;102318.46;;;9.70;53.39
80620;BME280;69979;53.682;-2.690;2023-11-21T08:59:25;102317.98;;;9.51;55.80
80620;BME280;69979;53.682;-2.690;2023-11-21T09:01:50;102322.77;;;9.94;55.13
80620;BME280;69979;53.682;-2.690;2023-11-21T09:04:16;102319.57;;;8.51;57.87
80620;BME280;69979;53.682;-2.690;2023-11-21T09:06:41;102322.08;;;8.98;57.22
80620;BME280;69979;53.682;-2.690;2023-11-21T09:09:07;102327.24;;;9.71;55.37
80620;BME280;69979;53.682;-2.690;2023-11-21T09:11:33;102327.80;;;10.60;53.52
80620;BME280;69979;53.682;-2.690;2023-11-21T09:13:59;102329.70;;;10.37;53.75
80620;BME280;69979;53.682;-2.690;2023-11-21T09:16:24;102333.50;;;11.29;52.56
80620;BME280;69979;53.682;-2.690;2023-11-21T09:18:49;102331.76;;;12.06;51.20
80620;BME280;69979;53.682;-2.690;2023-11-21T09:21:15;102335.77;;;10.85;51.90
80620;BME280;69979;53.682;-2.690;2023-11-21T09:23:42;102338.56;;;11.52;51.61
80620;BME280;69979;53.682;-2.690;2023-11-21T09:26:06;102344.03;;;11.44;51.11
80620;BME280;69979;53.682;-2.690;2023-11-21T09:28:32;102341.99;;;9.68;55.15
80620;BME280;69979;53.682;-2.690;2023-11-21T09:30:57;102339.29;;;10.93;53.06
80620;BME280;69979;53.682;-2.690;2023-11-21T09:33:23;102333.86;;;11.73;51.50
80620;BME280;69979;53.682;-2.690;2023-11-21T09:35:48;102342.49;;;11.28;51.63
80620;BME280;69979;53.682;-2.690;2023-11-21T09:38:14;102344.69;;;11.82;51.18
80620;BME280;69979;53.682;-2.690;2023-11-21T09:40:40;102337.39;;;11.57;51.43
80620;BME280;69979;53.682;-2.690;2023-11-21T09:43:08;102336.92;;;10.90;52.00
80620;BME280;69979;53.682;-2.690;2023-11-21T09:45:35;102347.88;;;10.50;51.93
80620;BME280;69979;53.682;-2.690;2023-11-21T09:47:57;102350.24;;;10.61;51.75
80620;BME280;69979;53.682;-2.690;2023-11-21T09:50:23;102344.80;;;10.74;51.31
80620;BME280;69979;53.682;-2.690;2023-11-21T09:52:55;102351.85;;;11.13;50.79
80620;BME280;69979;53.682;-2.690;2023-11-21T09:55:13;102355.89;;;11.14;50.52
80620;BME280;69979;53.682;-2.690;2023-11-21T09:57:39;102359.11;;;10.71;51.76
80620;BME280;69979;53.682;-2.690;2023-11-21T10:00:05;102361.11;;;11.18;51.59
80620;BME280;69979;53.682;-2.690;2023-11-21T10:02:30;102360.01;;;10.05;52.54
80620;BME280;69979;53.682;-2.690;2023-11-21T10:04:56;102364.56;;;10.98;51.64
80620;BME280;69979;53.682;-2.690;2023-11-21T10:07:21;102367.98;;;10.58;51.60
80620;BME280;69979;53.682;-2.690;2023-11-21T10:09:47;102363.30;;;10.29;51.85
80620;BME280;69979;53.682;-2.690;2023-11-21T10:12:13;102371.04;;;11.01;50.83
80620;BME280;69979;53.682;-2.690;2023-11-21T10:14:41;102377.93;;;10.83;50.60
80620;BME280;69979;53.682;-2.690;2023-11-21T10:17:04;102382.73;;;11.00;51.23
80620;BME280;69979;53.682;-2.690;2023-11-21T10:19:29;102378.52;;;10.21;52.40
80620;BME280;69979;53.682;-2.690;2023-11-21T10:21:55;102379.61;;;10.72;51.92
80620;BME280;69979;53.682;-2.690;2023-11-21T10:24:20;102381.29;;;11.00;51.45
80620;BME280;69979;53.682;-2.690;2023-11-21T10:26:46;102383.16;;;10.91;50.90
80620;BME280;69979;53.682;-2.690;2023-11-21T10:29:14;102389.71;;;11.40;50.72
80620;BME280;69979;53.682;-2.690;2023-11-21T10:31:37;102397.22;;;11.13;50.84
80620;BME280;69979;53.682;-2.690;2023-11-21T10:34:13;102401.52;;;10.99;50.56
80620;BME280;69979;53.682;-2.690;2023-11-21T10:36:29;102408.95;;;11.48;49.91
80620;BME280;69979;53.682;-2.690;2023-11-21T10:38:54;102415.22;;;11.06;50.47
80620;BME280;69979;53.682;-2.690;2023-11-21T10:41:20;102415.21;;;11.22;48.53
80620;BME280;69979;53.682;-2.690;2023-11-21T10:43:45;102405.50;;;11.80;48.23
80620;BME280;69979;53.682;-2.690;2023-11-21T10:46:11;102410.32;;;10.66;50.71
80620;BME280;69979;53.682;-2.690;2023-11-21T10:48:36;102409.78;;;11.49;48.95
80620;BME280;69979;53.682;-2.690;2023-11-21T10:51:06;102409.05;;;10.81;48.64
80620;BME280;69979;53.682;-2.690;2023-11-21T10:53:29;102408.75;;;11.89;46.88
80620;BME280;69979;53.682;-2.690;2023-11-21T10:56:01;102408.46;;;10.98;46.41
80620;BME280;69979;53.682;-2.690;2023-11-21T10:58:18;102409.26;;;11.42;46.28
80620;BME280;69979;53.682;-2.690;2023-11-21T11:00:44;102405.57;;;11.99;45.56
80620;BME280;69979;53.682;-2.690;2023-11-21T11:03:10;102415.23;;;12.56;45.86
80620;BME280;69979;53.682;-2.690;2023-11-21T11:05:35;102419.34;;;11.69;47.28
80620;BME280;69979;53.682;-2.690;2023-11-21T11:08:05;102417.72;;;12.26;45.78
80620;BME280;69979;53.682;-2.690;2023-11-21T11:10:27;102418.83;;;12.56;45.17
80620;BME280;69979;53.682;-2.690;2023-11-21T11:12:53;102414.16;;;12.06;44.63
80620;BME280;69979;53.682;-2.690;2023-11-21T11:15:18;102422.21;;;12.17;45.18
80620;BME280;69979;53.682;-2.690;2023-11-21T11:17:43;102424.66;;;11.84;46.41
80620;BME280;69979;53.682;-2.690;2023-11-21T11:20:12;102430.75;;;11.10;49.01
80620;BME280;69979;53.682;-2.690;2023-11-21T11:22:38;102430.25;;;10.87;49.73
80620;BME280;69979;53.682;-2.690;2023-11-21T11:25:18;102426.24;;;11.04;49.42
80620;BME280;69979;53.682;-2.690;2023-11-21T11:27:34;102425.62;;;10.99;49.39
80620;BME280;69979;53.682;-2.690;2023-11-21T11:29:58;102427.55;;;11.14;49.42
80620;BME280;69979;53.682;-2.690;2023-11-21T11:32:25;102428.31;;;10.72;51.09
80620;BME280;69979;53.682;-2.690;2023-11-21T11:34:47;102427.24;;;11.14;50.16
80620;BME280;69979;53.682;-2.690;2023-11-21T11:37:09;102419.33;;;10.44;51.38
80620;BME280;69979;53.682;-2.690;2023-11-21T11:39:37;102415.48;;;10.25;52.37
80620;BME280;69979;53.682;-2.690;2023-11-21T11:42:03;102412.53;;;10.54;51.37
80620;BME280;69979;53.682;-2.690;2023-11-21T11:46:53;102419.70;;;10.65;50.10
80620;BME280;69979;53.682;-2.690;2023-11-21T11:49:23;102421.50;;;9.54;53.24
80620;BME280;69979;53.682;-2.690;2023-11-21T11:51:41;102431.37;;;10.79;51.06
80620;BME280;69979;53.682;-2.690;2023-11-21T11:54:07;102436.79;;;10.63;51.16
80620;BME280;69979;53.682;-2.690;2023-11-21T11:56:34;102432.74;;;10.04;52.39
80620;BME280;69979;53.682;-2.690;2023-11-21T11:59:00;102433.44;;;10.04;52.31
80620;BME280;69979;53.682;-2.690;2023-11-21T12:01:25;102437.51;;;9.89;52.68
80620;BME280;69979;53.682;-2.690;2023-11-21T12:06:15;102450.62;;;11.09;49.72
80620;BME280;69979;53.682;-2.690;2023-11-21T12:08:41;102448.62;;;11.37;48.76
80620;BME280;69979;53.682;-2.690;2023-11-21T12:11:06;102450.35;;;11.82;47.85
80620;BME280;69979;53.682;-2.690;2023-11-21T12:13:32;102449.43;;;10.98;49.79
80620;BME280;69979;53.682;-2.690;2023-11-21T12:15:57;102451.52;;;11.65;48.96
80620;BME280;69979;53.682;-2.690;2023-11-21T12:18:23;102449.57;;;11.68;48.30
80620;BME280;69979;53.682;-2.690;2023-11-21T12:20:48;102458.95;;;11.46;48.84
80620;BME280;69979;53.682;-2.690;2023-11-21T12:23:14;102459.48;;;10.57;49.65
80620;BME280;69979;53.682;-2.690;2023-11-21T12:25:40;102463.70;;;10.93;49.39
80620;BME280;69979;53.682;-2.690;2023-11-21T12:28:06;102465.50;;;10.52;48.64
80620;BME280;69979;53.682;-2.690;2023-11-21T12:30:33;102466.69;;;12.67;45.74
80620;BME280;69979;53.682;-2.690;2023-11-21T12:32:58;102467.16;;;12.55;46.45
80620;BME280;69979;53.682;-2.690;2023-11-21T12:35:24;102462.88;;;12.63;46.19
80620;BME280;69979;53.682;-2.690;2023-11-21T12:37:48;102456.51;;;12.52;47.05
80620;BME280;69979;53.682;-2.690;2023-11-21T12:40:14;102457.27;;;12.12;47.03